sensor_id;sensor_type;location;lat;lon;timestamp;P1;durP1;ratioP1;P2;durP2;ratioP2
39600;SDS011;25297;44.758;11.310;2023-03-29T00:00:25;8.65;;;5.15;;
39600;SDS011;25297;44.758;11.310;2023-03-29T00:02:51;11.05;;;5.15;;
39600;SDS011;25297;44.758;11.310;2023-03-29T00:05:21;9.32;;;5.50;;
39600;SDS011;25297;44.758;11.310;2023-03-29T00:07:49;7.63;;;5.35;;
39600;SDS011;25297;44.758;11.310;2023-03-29T00:10:19;7.72;;;5.50;;
39600;SDS011;25297;44.758;11.310;2023-03-29T00:12:48;8.55;;;5.28;;
39600;SDS011;25297;44.758;11.310;2023-03-29T00:15:16;8.73;;;5.55;;
39600;SDS011;25297;44.758;11.310;2023-03-29T00:17:43;10.07;;;6.03;;
39600;SDS011;25297;44.758;11.310;2023-03-29T00:20:09;9.15;;;5.85;;
39600;SDS011;25297;44.758;11.310;2023-03-29T00:22:41;10.70;;;6.30;;
39600;SDS011;25297;44.758;11.310;2023-03-29T00:25:08;14.20;;;6.85;;
39600;SDS011;25297;44.758;11.310;2023-03-29T00:27:34;11.35;;;5.93;;
39600;SDS011;25297;44.758;11.310;2023-03-29T00:30:01;11.40;;;6.13;;
39600;SDS011;25297;44.758;11.310;2023-03-29T00:32:29;7.50;;;5.70;;
39600;SDS011;25297;44.758;11.310;2023-03-29T00:34:55;11.20;;;6.47;;
39600;SDS011;25297;44.758;11.310;2023-03-29T00:37:24;16.00;;;6.85;;
39600;SDS011;25297;44.758;11.310;2023-03-29T00:39:53;12.70;;;6.90;;
39600;SDS011;25297;44.758;11.310;2023-03-29T00:42:20;10.25;;;6.45;;
39600;SDS011;25297;44.758;11.310;2023-03-29T00:50:07;14.50;;;7.65;;
39600;SDS011;25297;44.758;11.310;2023-03-29T00:52:38;14.05;;;7.32;;
39600;SDS011;25297;44.758;11.310;2023-03-29T00:55:08;12.55;;;7.00;;
39600;SDS011;25297;44.758;11.310;2023-03-29T00:57:40;14.25;;;7.30;;
39600;SDS011;25297;44.758;11.310;2023-03-29T01:00:10;12.20;;;7.40;;
39600;SDS011;25297;44.758;11.310;2023-03-29T01:02:39;12.60;;;7.45;;
39600;SDS011;25297;44.758;11.310;2023-03-29T01:05:11;13.15;;;7.45;;
39600;SDS011;25297;44.758;11.310;2023-03-29T01:07:55;13.25;;;7.28;;
39600;SDS011;25297;44.758;11.310;2023-03-29T01:13:08;13.27;;;7.23;;
39600;SDS011;25297;44.758;11.310;2023-03-29T01:15:36;12.65;;;7.05;;
39600;SDS011;25297;44.758;11.310;2023-03-29T01:18:06;12.10;;;7.55;;
39600;SDS011;25297;44.758;11.310;2023-03-29T01:20:45;11.48;;;7.10;;
39600;SDS011;25297;44.758;11.310;2023-03-29T01:23:47;13.10;;;8.48;;
39600;SDS011;25297;44.758;11.310;2023-03-29T01:29:14;12.18;;;6.95;;
39600;SDS011;25297;44.758;11.310;2023-03-29T01:31:45;13.07;;;7.10;;
39600;SDS011;25297;44.758;11.310;2023-03-29T01:34:39;11.55;;;7.07;;
39600;SDS011;25297;44.758;11.310;2023-03-29T01:37:17;9.27;;;6.13;;
39600;SDS011;25297;44.758;11.310;2023-03-29T01:39:53;11.13;;;6.70;;
39600;SDS011;25297;44.758;11.310;2023-03-29T01:45:07;11.65;;;7.25;;
39600;SDS011;25297;44.758;11.310;2023-03-29T01:47:51;10.18;;;6.90;;
39600;SDS011;25297;44.758;11.310;2023-03-29T01:53:25;12.52;;;7.30;;
39600;SDS011;25297;44.758;11.310;2023-03-29T01:55:57;11.33;;;6.80;;
39600;SDS011;25297;44.758;11.310;2023-03-29T01:58:31;10.40;;;6.97;;
39600;SDS011;25297;44.758;11.310;2023-03-29T02:00:58;9.82;;;7.03;;
39600;SDS011;25297;44.758;11.310;2023-03-29T02:03:29;14.20;;;7.53;;
39600;SDS011;25297;44.758;11.310;2023-03-29T02:05:58;11.50;;;7.30;;
39600;SDS011;25297;44.758;11.310;2023-03-29T02:08:24;14.02;;;7.93;;
39600;SDS011;25297;44.758;11.310;2023-03-29T02:10:52;15.32;;;8.20;;
39600;SDS011;25297;44.758;11.310;2023-03-29T02:13:18;11.95;;;8.63;;
39600;SDS011;25297;44.758;11.310;2023-03-29T02:15:45;12.50;;;7.65;;
39600;SDS011;25297;44.758;11.310;2023-03-29T02:18:12;14.50;;;7.88;;
39600;SDS011;25297;44.758;11.310;2023-03-29T02:20:42;12.68;;;7.65;;
39600;SDS011;25297;44.758;11.310;2023-03-29T02:25:40;12.80;;;8.25;;
39600;SDS011;25297;44.758;11.310;2023-03-29T02:28:07;12.02;;;7.70;;
39600;SDS011;25297;44.758;11.310;2023-03-29T02:30:37;11.27;;;7.45;;
39600;SDS011;25297;44.758;11.310;2023-03-29T02:33:17;15.63;;;7.97;;
39600;SDS011;25297;44.758;11.310;2023-03-29T02:36:23;11.23;;;7.28;;
39600;SDS011;25297;44.758;11.310;2023-03-29T02:38:41;12.77;;;8.77;;
39600;SDS011;25297;44.758;11.310;2023-03-29T02:41:08;11.82;;;7.60;;
39600;SDS011;25297;44.758;11.310;2023-03-29T02:43:34;11.07;;;7.05;;
39600;SDS011;25297;44.758;11.310;2023-03-29T02:46:02;10.82;;;7.03;;
39600;SDS011;25297;44.758;11.310;2023-03-29T02:48:30;9.80;;;6.97;;
39600;SDS011;25297;44.758;11.310;2023-03-29T02:50:59;10.13;;;7.47;;
39600;SDS011;25297;44.758;11.310;2023-03-29T02:53:31;10.45;;;6.50;;
39600;SDS011;25297;44.758;11.310;2023-03-29T02:56:03;18.73;;;7.35;;
39600;SDS011;25297;44.758;11.310;2023-03-29T02:58:29;11.02;;;6.43;;
39600;SDS011;25297;44.758;11.310;2023-03-29T03:00:55;10.25;;;7.28;;
39600;SDS011;25297;44.758;11.310;2023-03-29T03:03:23;11.90;;;6.60;;
39600;SDS011;25297;44.758;11.310;2023-03-29T03:05:50;16.00;;;7.40;;
39600;SDS011;25297;44.758;11.310;2023-03-29T03:08:16;14.43;;;7.65;;
39600;SDS011;25297;44.758;11.310;2023-03-29T03:10:42;15.30;;;7.10;;
39600;SDS011;25297;44.758;11.310;2023-03-29T03:13:09;19.45;;;7.20;;
39600;SDS011;25297;44.758;11.310;2023-03-29T03:15:35;11.80;;;6.70;;
39600;SDS011;25297;44.758;11.310;2023-03-29T03:18:01;10.23;;;7.30;;
39600;SDS011;25297;44.758;11.310;2023-03-29T03:20:27;14.13;;;6.88;;
39600;SDS011;25297;44.758;11.310;2023-03-29T03:22:53;16.35;;;7.15;;
39600;SDS011;25297;44.758;11.310;2023-03-29T03:25:21;15.55;;;7.53;;
39600;SDS011;25297;44.758;11.310;2023-03-29T03:27:47;13.63;;;8.00;;
39600;SDS011;25297;44.758;11.310;2023-03-29T03:30:14;15.55;;;7.18;;
39600;SDS011;25297;44.758;11.310;2023-03-29T03:32:40;11.30;;;7.25;;
39600;SDS011;25297;44.758;11.310;2023-03-29T03:35:09;14.32;;;8.50;;
39600;SDS011;25297;44.758;11.310;2023-03-29T03:37:36;11.10;;;6.82;;
39600;SDS011;25297;44.758;11.310;2023-03-29T03:40:02;15.55;;;8.98;;
39600;SDS011;25297;44.758;11.310;2023-03-29T03:42:35;11.50;;;7.03;;
39600;SDS011;25297;44.758;11.310;2023-03-29T03:45:05;13.13;;;7.30;;
39600;SDS011;25297;44.758;11.310;2023-03-29T03:47:33;12.20;;;7.03;;
39600;SDS011;25297;44.758;11.310;2023-03-29T03:49:59;10.45;;;6.45;;
39600;SDS011;25297;44.758;11.310;2023-03-29T03:52:25;13.10;;;6.63;;
39600;SDS011;25297;44.758;11.310;2023-03-29T03:54:51;12.23;;;6.00;;
39600;SDS011;25297;44.758;11.310;2023-03-29T03:57:16;14.57;;;7.50;;
39600;SDS011;25297;44.758;11.310;2023-03-29T03:59:42;8.82;;;6.50;;
39600;SDS011;25297;44.758;11.310;2023-03-29T04:02:08;15.77;;;6.95;;
39600;SDS011;25297;44.758;11.310;2023-03-29T04:04:34;11.23;;;6.57;;
39600;SDS011;25297;44.758;11.310;2023-03-29T04:07:00;17.05;;;7.20;;
39600;SDS011;25297;44.758;11.310;2023-03-29T04:09:29;10.73;;;5.97;;
39600;SDS011;25297;44.758;11.310;2023-03-29T04:11:56;14.52;;;6.45;;
39600;SDS011;25297;44.758;11.310;2023-03-29T04:14:22;8.90;;;6.60;;
39600;SDS011;25297;44.758;11.310;2023-03-29T04:16:47;9.00;;;6.22;;
39600;SDS011;25297;44.758;11.310;2023-03-29T04:19:13;11.43;;;6.80;;
39600;SDS011;25297;44.758;11.310;2023-03-29T04:21:39;13.00;;;6.68;;
39600;SDS011;25297;44.758;11.310;2023-03-29T04:24:05;14.93;;;6.75;;
39600;SDS011;25297;44.758;11.310;2023-03-29T04:26:31;11.65;;;6.88;;
39600;SDS011;25297;44.758;11.310;2023-03-29T04:28:56;12.10;;;6.88;;
39600;SDS011;25297;44.758;11.310;2023-03-29T04:31:22;11.80;;;6.90;;
39600;SDS011;25297;44.758;11.310;2023-03-29T04:33:48;13.82;;;7.53;;
39600;SDS011;25297;44.758;11.310;2023-03-29T04:36:15;12.30;;;7.47;;
39600;SDS011;25297;44.758;11.310;2023-03-29T04:38:41;13.55;;;7.72;;
39600;SDS011;25297;44.758;11.310;2023-03-29T04:41:07;12.30;;;7.35;;
39600;SDS011;25297;44.758;11.310;2023-03-29T04:43:33;12.75;;;7.20;;
39600;SDS011;25297;44.758;11.310;2023-03-29T04:45:59;12.60;;;7.35;;
39600;SDS011;25297;44.758;11.310;2023-03-29T04:48:26;11.70;;;7.60;;
39600;SDS011;25297;44.758;11.310;2023-03-29T04:50:54;13.32;;;7.47;;
39600;SDS011;25297;44.758;11.310;2023-03-29T04:53:20;12.48;;;7.35;;
39600;SDS011;25297;44.758;11.310;2023-03-29T04:55:46;13.52;;;7.13;;
39600;SDS011;25297;44.758;11.310;2023-03-29T04:58:12;11.63;;;6.93;;
39600;SDS011;25297;44.758;11.310;2023-03-29T05:00:38;15.05;;;8.30;;
39600;SDS011;25297;44.758;11.310;2023-03-29T05:03:04;12.35;;;7.90;;
39600;SDS011;25297;44.758;11.310;2023-03-29T05:05:30;10.48;;;7.47;;
39600;SDS011;25297;44.758;11.310;2023-03-29T05:07:56;15.63;;;7.68;;
39600;SDS011;25297;44.758;11.310;2023-03-29T05:10:22;12.65;;;8.52;;
39600;SDS011;25297;44.758;11.310;2023-03-29T05:12:47;10.18;;;7.00;;
39600;SDS011;25297;44.758;11.310;2023-03-29T05:15:18;16.48;;;7.97;;
39600;SDS011;25297;44.758;11.310;2023-03-29T05:17:44;13.15;;;7.65;;
39600;SDS011;25297;44.758;11.310;2023-03-29T05:20:10;15.30;;;8.13;;
39600;SDS011;25297;44.758;11.310;2023-03-29T05:22:37;10.45;;;7.43;;
39600;SDS011;25297;44.758;11.310;2023-03-29T05:25:04;11.73;;;7.57;;
39600;SDS011;25297;44.758;11.310;2023-03-29T05:27:30;11.40;;;7.55;;
39600;SDS011;25297;44.758;11.310;2023-03-29T05:29:57;15.77;;;7.68;;
39600;SDS011;25297;44.758;11.310;2023-03-29T05:32:23;16.38;;;9.00;;
39600;SDS011;25297;44.758;11.310;2023-03-29T05:34:49;10.35;;;7.43;;
39600;SDS011;25297;44.758;11.310;2023-03-29T05:37:15;15.93;;;8.00;;
39600;SDS011;25297;44.758;11.310;2023-03-29T05:39:41;17.50;;;7.25;;
39600;SDS011;25297;44.758;11.310;2023-03-29T05:42:07;12.82;;;7.50;;
39600;SDS011;25297;44.758;11.310;2023-03-29T05:44:36;12.05;;;7.40;;
39600;SDS011;25297;44.758;11.310;2023-03-29T05:47:02;11.23;;;6.85;;
39600;SDS011;25297;44.758;11.310;2023-03-29T05:49:27;10.57;;;7.40;;
39600;SDS011;25297;44.758;11.310;2023-03-29T05:51:53;10.77;;;7.43;;
39600;SDS011;25297;44.758;11.310;2023-03-29T05:54:20;14.23;;;8.27;;
39600;SDS011;25297;44.758;11.310;2023-03-29T05:56:47;13.50;;;7.18;;
39600;SDS011;25297;44.758;11.310;2023-03-29T05:59:13;10.30;;;7.13;;
39600;SDS011;25297;44.758;11.310;2023-03-29T06:01:39;12.15;;;6.32;;
39600;SDS011;25297;44.758;11.310;2023-03-29T06:04:05;13.27;;;5.82;;
39600;SDS011;25297;44.758;11.310;2023-03-29T06:06:31;11.93;;;5.30;;
39600;SDS011;25297;44.758;11.310;2023-03-29T06:08:57;10.73;;;5.90;;
39600;SDS011;25297;44.758;11.310;2023-03-29T06:11:23;7.55;;;4.53;;
39600;SDS011;25297;44.758;11.310;2023-03-29T06:13:50;9.77;;;4.45;;
39600;SDS011;25297;44.758;11.310;2023-03-29T06:16:16;10.93;;;4.10;;
39600;SDS011;25297;44.758;11.310;2023-03-29T06:18:42;12.43;;;5.22;;
39600;SDS011;25297;44.758;11.310;2023-03-29T06:21:08;7.57;;;3.80;;
39600;SDS011;25297;44.758;11.310;2023-03-29T06:23:34;9.80;;;3.85;;
39600;SDS011;25297;44.758;11.310;2023-03-29T06:26:00;12.63;;;4.40;;
39600;SDS011;25297;44.758;11.310;2023-03-29T06:28:26;6.80;;;3.75;;
39600;SDS011;25297;44.758;11.310;2023-03-29T06:30:52;8.85;;;3.90;;
39600;SDS011;25297;44.758;11.310;2023-03-29T06:33:20;6.20;;;3.63;;
39600;SDS011;25297;44.758;11.310;2023-03-29T06:35:49;9.90;;;3.63;;
39600;SDS011;25297;44.758;11.310;2023-03-29T06:38:15;15.27;;;3.80;;
39600;SDS011;25297;44.758;11.310;2023-03-29T06:40:41;8.80;;;4.40;;
39600;SDS011;25297;44.758;11.310;2023-03-29T06:43:08;5.47;;;3.58;;
39600;SDS011;25297;44.758;11.310;2023-03-29T06:45:35;8.40;;;4.47;;
39600;SDS011;25297;44.758;11.310;2023-03-29T06:48:02;11.60;;;4.00;;
39600;SDS011;25297;44.758;11.310;2023-03-29T06:50:30;8.70;;;4.28;;
39600;SDS011;25297;44.758;11.310;2023-03-29T06:52:56;7.75;;;4.10;;
39600;SDS011;25297;44.758;11.310;2023-03-29T06:55:22;7.55;;;3.80;;
39600;SDS011;25297;44.758;11.310;2023-03-29T06:57:49;10.10;;;4.57;;
39600;SDS011;25297;44.758;11.310;2023-03-29T07:00:16;8.93;;;4.72;;
39600;SDS011;25297;44.758;11.310;2023-03-29T07:02:44;9.93;;;4.15;;
39600;SDS011;25297;44.758;11.310;2023-03-29T07:05:11;6.85;;;4.40;;
39600;SDS011;25297;44.758;11.310;2023-03-29T07:07:38;9.18;;;4.75;;
39600;SDS011;25297;44.758;11.310;2023-03-29T07:10:21;17.20;;;6.30;;
39600;SDS011;25297;44.758;11.310;2023-03-29T07:12:50;13.10;;;7.50;;
39600;SDS011;25297;44.758;11.310;2023-03-29T07:15:17;16.63;;;8.77;;
39600;SDS011;25297;44.758;11.310;2023-03-29T07:17:45;8.57;;;5.10;;
39600;SDS011;25297;44.758;11.310;2023-03-29T07:20:12;8.70;;;4.72;;
39600;SDS011;25297;44.758;11.310;2023-03-29T07:22:38;6.40;;;4.47;;
39600;SDS011;25297;44.758;11.310;2023-03-29T07:25:05;8.38;;;4.50;;
39600;SDS011;25297;44.758;11.310;2023-03-29T07:27:33;7.63;;;4.40;;
39600;SDS011;25297;44.758;11.310;2023-03-29T07:30:02;7.05;;;5.13;;
39600;SDS011;25297;44.758;11.310;2023-03-29T07:32:33;6.80;;;3.83;;
39600;SDS011;25297;44.758;11.310;2023-03-29T07:35:00;7.18;;;4.22;;
39600;SDS011;25297;44.758;11.310;2023-03-29T07:37:28;10.93;;;4.90;;
39600;SDS011;25297;44.758;11.310;2023-03-29T07:39:53;10.98;;;4.50;;
39600;SDS011;25297;44.758;11.310;2023-03-29T07:42:20;8.95;;;4.60;;
39600;SDS011;25297;44.758;11.310;2023-03-29T07:44:46;8.25;;;4.35;;
39600;SDS011;25297;44.758;11.310;2023-03-29T07:47:12;6.53;;;4.10;;
39600;SDS011;25297;44.758;11.310;2023-03-29T07:49:39;10.50;;;4.53;;
39600;SDS011;25297;44.758;11.310;2023-03-29T07:52:06;11.77;;;4.75;;
39600;SDS011;25297;44.758;11.310;2023-03-29T07:54:32;8.07;;;4.55;;
39600;SDS011;25297;44.758;11.310;2023-03-29T07:56:58;10.25;;;5.05;;
39600;SDS011;25297;44.758;11.310;2023-03-29T07:59:24;8.77;;;5.25;;
39600;SDS011;25297;44.758;11.310;2023-03-29T08:01:51;10.88;;;5.72;;
39600;SDS011;25297;44.758;11.310;2023-03-29T08:04:17;8.88;;;5.32;;
39600;SDS011;25297;44.758;11.310;2023-03-29T08:06:43;8.15;;;5.47;;
39600;SDS011;25297;44.758;11.310;2023-03-29T08:09:09;9.13;;;5.75;;
39600;SDS011;25297;44.758;11.310;2023-03-29T08:11:34;8.85;;;5.60;;
39600;SDS011;25297;44.758;11.310;2023-03-29T08:14:02;7.07;;;5.20;;
39600;SDS011;25297;44.758;11.310;2023-03-29T08:16:28;10.63;;;5.85;;
39600;SDS011;25297;44.758;11.310;2023-03-29T08:18:53;10.93;;;5.38;;
39600;SDS011;25297;44.758;11.310;2023-03-29T08:21:19;10.45;;;6.10;;
39600;SDS011;25297;44.758;11.310;2023-03-29T08:23:45;9.80;;;5.63;;
39600;SDS011;25297;44.758;11.310;2023-03-29T08:26:11;10.13;;;5.53;;
39600;SDS011;25297;44.758;11.310;2023-03-29T08:28:37;11.80;;;6.32;;
39600;SDS011;25297;44.758;11.310;2023-03-29T08:31:03;13.65;;;5.47;;
39600;SDS011;25297;44.758;11.310;2023-03-29T08:33:30;8.82;;;5.45;;
39600;SDS011;25297;44.758;11.310;2023-03-29T08:35:56;8.52;;;5.43;;
39600;SDS011;25297;44.758;11.310;2023-03-29T08:38:22;11.45;;;6.43;;
39600;SDS011;25297;44.758;11.310;2023-03-29T08:40:47;9.02;;;6.18;;
39600;SDS011;25297;44.758;11.310;2023-03-29T08:48:44;9.68;;;5.75;;
39600;SDS011;25297;44.758;11.310;2023-03-29T08:51:24;8.13;;;5.70;;
39600;SDS011;25297;44.758;11.310;2023-03-29T08:53:59;8.57;;;5.75;;
39600;SDS011;25297;44.758;11.310;2023-03-29T08:56:26;9.32;;;5.85;;
39600;SDS011;25297;44.758;11.310;2023-03-29T08:58:55;7.68;;;6.13;;
39600;SDS011;25297;44.758;11.310;2023-03-29T09:01:22;9.38;;;6.10;;
39600;SDS011;25297;44.758;11.310;2023-03-29T09:03:58;12.93;;;6.53;;
39600;SDS011;25297;44.758;11.310;2023-03-29T09:06:37;7.63;;;6.32;;
39600;SDS011;25297;44.758;11.310;2023-03-29T09:09:04;8.15;;;5.72;;
39600;SDS011;25297;44.758;11.310;2023-03-29T09:14:46;10.38;;;6.20;;
39600;SDS011;25297;44.758;11.310;2023-03-29T09:22:44;9.52;;;6.60;;
39600;SDS011;25297;44.758;11.310;2023-03-29T09:25:23;9.18;;;6.55;;
39600;SDS011;25297;44.758;11.310;2023-03-29T09:27:57;9.70;;;6.70;;
39600;SDS011;25297;44.758;11.310;2023-03-29T09:30:41;12.30;;;6.80;;
39600;SDS011;25297;44.758;11.310;2023-03-29T09:33:25;10.60;;;6.68;;
39600;SDS011;25297;44.758;11.310;2023-03-29T09:38:42;9.68;;;5.97;;
39600;SDS011;25297;44.758;11.310;2023-03-29T09:44:00;12.85;;;6.57;;
39600;SDS011;25297;44.758;11.310;2023-03-29T09:46:40;10.00;;;6.85;;
39600;SDS011;25297;44.758;11.310;2023-03-29T09:49:10;11.70;;;5.60;;
39600;SDS011;25297;44.758;11.310;2023-03-29T09:51:43;7.97;;;6.22;;
39600;SDS011;25297;44.758;11.310;2023-03-29T09:54:12;10.52;;;6.00;;
39600;SDS011;25297;44.758;11.310;2023-03-29T09:56:38;8.23;;;5.97;;
39600;SDS011;25297;44.758;11.310;2023-03-29T09:59:04;16.95;;;6.47;;
39600;SDS011;25297;44.758;11.310;2023-03-29T10:01:34;8.27;;;5.45;;
39600;SDS011;25297;44.758;11.310;2023-03-29T10:04:04;7.30;;;5.43;;
39600;SDS011;25297;44.758;11.310;2023-03-29T10:06:31;10.43;;;5.80;;
39600;SDS011;25297;44.758;11.310;2023-03-29T10:08:58;9.57;;;4.93;;
39600;SDS011;25297;44.758;11.310;2023-03-29T10:11:31;6.22;;;4.47;;
39600;SDS011;25297;44.758;11.310;2023-03-29T10:13:59;6.47;;;4.13;;
39600;SDS011;25297;44.758;11.310;2023-03-29T10:16:29;8.25;;;4.95;;
39600;SDS011;25297;44.758;11.310;2023-03-29T10:21:50;9.27;;;5.57;;
39600;SDS011;25297;44.758;11.310;2023-03-29T10:24:23;8.15;;;4.93;;
39600;SDS011;25297;44.758;11.310;2023-03-29T10:26:51;10.05;;;4.65;;
39600;SDS011;25297;44.758;11.310;2023-03-29T10:29:24;5.93;;;4.40;;
39600;SDS011;25297;44.758;11.310;2023-03-29T10:31:50;9.25;;;4.80;;
39600;SDS011;25297;44.758;11.310;2023-03-29T10:34:17;13.93;;;5.03;;
39600;SDS011;25297;44.758;11.310;2023-03-29T10:36:44;9.68;;;4.78;;
39600;SDS011;25297;44.758;11.310;2023-03-29T10:39:22;8.98;;;4.45;;
39600;SDS011;25297;44.758;11.310;2023-03-29T10:41:51;7.53;;;4.05;;
39600;SDS011;25297;44.758;11.310;2023-03-29T10:44:27;7.63;;;4.32;;
39600;SDS011;25297;44.758;11.310;2023-03-29T10:46:55;7.57;;;4.03;;
39600;SDS011;25297;44.758;11.310;2023-03-29T10:49:30;6.28;;;3.97;;
39600;SDS011;25297;44.758;11.310;2023-03-29T10:52:05;6.32;;;4.40;;
39600;SDS011;25297;44.758;11.310;2023-03-29T10:54:33;10.30;;;4.13;;
39600;SDS011;25297;44.758;11.310;2023-03-29T10:57:00;5.25;;;3.75;;
39600;SDS011;25297;44.758;11.310;2023-03-29T11:05:23;6.30;;;3.58;;
39600;SDS011;25297;44.758;11.310;2023-03-29T11:16:00;8.05;;;4.25;;
39600;SDS011;25297;44.758;11.310;2023-03-29T11:18:41;12.65;;;3.90;;
39600;SDS011;25297;44.758;11.310;2023-03-29T11:21:47;7.55;;;4.90;;
39600;SDS011;25297;44.758;11.310;2023-03-29T11:38:12;10.20;;;4.90;;
39600;SDS011;25297;44.758;11.310;2023-03-29T11:46:20;6.20;;;4.17;;
39600;SDS011;25297;44.758;11.310;2023-03-29T11:48:52;7.50;;;3.88;;
39600;SDS011;25297;44.758;11.310;2023-03-29T11:51:42;7.97;;;4.35;;
39600;SDS011;25297;44.758;11.310;2023-03-29T11:54:20;7.47;;;4.35;;
39600;SDS011;25297;44.758;11.310;2023-03-29T11:57:04;7.70;;;4.18;;
39600;SDS011;25297;44.758;11.310;2023-03-29T12:00:01;9.65;;;5.13;;
39600;SDS011;25297;44.758;11.310;2023-03-29T12:05:06;7.18;;;4.72;;
39600;SDS011;25297;44.758;11.310;2023-03-29T12:07:43;9.63;;;5.10;;
39600;SDS011;25297;44.758;11.310;2023-03-29T12:10:19;7.95;;;4.45;;
39600;SDS011;25297;44.758;11.310;2023-03-29T12:13:04;22.70;;;5.50;;
39600;SDS011;25297;44.758;11.310;2023-03-29T12:15:51;10.65;;;5.60;;
39600;SDS011;25297;44.758;11.310;2023-03-29T12:18:26;8.98;;;4.32;;
39600;SDS011;25297;44.758;11.310;2023-03-29T12:21:05;10.38;;;4.85;;
39600;SDS011;25297;44.758;11.310;2023-03-29T12:23:36;6.93;;;4.78;;
39600;SDS011;25297;44.758;11.310;2023-03-29T12:26:11;11.50;;;5.25;;
39600;SDS011;25297;44.758;11.310;2023-03-29T12:37:54;11.73;;;5.10;;
39600;SDS011;25297;44.758;11.310;2023-03-29T12:40:42;10.68;;;5.38;;
39600;SDS011;25297;44.758;11.310;2023-03-29T12:43:43;7.55;;;5.00;;
39600;SDS011;25297;44.758;11.310;2023-03-29T12:46:17;8.25;;;5.07;;
39600;SDS011;25297;44.758;11.310;2023-03-29T12:48:48;11.20;;;5.13;;
39600;SDS011;25297;44.758;11.310;2023-03-29T12:51:18;7.97;;;5.18;;
39600;SDS011;25297;44.758;11.310;2023-03-29T12:53:48;9.82;;;4.82;;
39600;SDS011;25297;44.758;11.310;2023-03-29T12:56:18;7.75;;;4.43;;
39600;SDS011;25297;44.758;11.310;2023-03-29T13:01:27;9.55;;;4.47;;
39600;SDS011;25297;44.758;11.310;2023-03-29T13:09:33;13.48;;;5.72;;
39600;SDS011;25297;44.758;11.310;2023-03-29T13:12:17;8.30;;;5.32;;
39600;SDS011;25297;44.758;11.310;2023-03-29T13:15:05;9.73;;;5.05;;
39600;SDS011;25297;44.758;11.310;2023-03-29T13:25:59;11.27;;;5.18;;
39600;SDS011;25297;44.758;11.310;2023-03-29T13:31:40;10.63;;;5.72;;
39600;SDS011;25297;44.758;11.310;2023-03-29T13:36:55;8.40;;;4.82;;
39600;SDS011;25297;44.758;11.310;2023-03-29T13:39:33;9.82;;;4.97;;
39600;SDS011;25297;44.758;11.310;2023-03-29T13:44:44;14.10;;;5.43;;
39600;SDS011;25297;44.758;11.310;2023-03-29T13:47:14;7.15;;;4.60;;
39600;SDS011;25297;44.758;11.310;2023-03-29T13:49:52;9.98;;;4.72;;
39600;SDS011;25297;44.758;11.310;2023-03-29T13:52:25;7.75;;;4.60;;
39600;SDS011;25297;44.758;11.310;2023-03-29T13:57:39;9.73;;;4.18;;
39600;SDS011;25297;44.758;11.310;2023-03-29T14:02:53;7.00;;;3.78;;
39600;SDS011;25297;44.758;11.310;2023-03-29T14:05:27;10.68;;;4.03;;
39600;SDS011;25297;44.758;11.310;2023-03-29T14:07:56;9.30;;;4.45;;
39600;SDS011;25297;44.758;11.310;2023-03-29T14:10:33;9.60;;;4.13;;
39600;SDS011;25297;44.758;11.310;2023-03-29T14:13:04;8.98;;;4.05;;
39600;SDS011;25297;44.758;11.310;2023-03-29T14:18:23;9.05;;;3.22;;
39600;SDS011;25297;44.758;11.310;2023-03-29T14:20:51;5.03;;;3.38;;
39600;SDS011;25297;44.758;11.310;2023-03-29T14:23:20;8.45;;;3.08;;
39600;SDS011;25297;44.758;11.310;2023-03-29T14:25:48;6.82;;;3.33;;
39600;SDS011;25297;44.758;11.310;2023-03-29T14:30:50;8.30;;;3.67;;
39600;SDS011;25297;44.758;11.310;2023-03-29T14:33:30;9.38;;;4.47;;
39600;SDS011;25297;44.758;11.310;2023-03-29T14:35:59;6.97;;;3.85;;
39600;SDS011;25297;44.758;11.310;2023-03-29T14:38:30;11.35;;;4.20;;
39600;SDS011;25297;44.758;11.310;2023-03-29T14:40:59;6.82;;;3.80;;
39600;SDS011;25297;44.758;11.310;2023-03-29T14:43:26;5.63;;;3.50;;
39600;SDS011;25297;44.758;11.310;2023-03-29T14:45:55;5.93;;;3.50;;
39600;SDS011;25297;44.758;11.310;2023-03-29T14:48:22;5.93;;;3.20;;
39600;SDS011;25297;44.758;11.310;2023-03-29T14:50:48;8.23;;;3.92;;
39600;SDS011;25297;44.758;11.310;2023-03-29T14:53:18;7.00;;;4.28;;
39600;SDS011;25297;44.758;11.310;2023-03-29T14:55:50;10.50;;;3.65;;
39600;SDS011;25297;44.758;11.310;2023-03-29T14:58:27;7.88;;;3.65;;
39600;SDS011;25297;44.758;11.310;2023-03-29T15:00:55;6.88;;;3.58;;
39600;SDS011;25297;44.758;11.310;2023-03-29T15:03:21;7.65;;;3.60;;
39600;SDS011;25297;44.758;11.310;2023-03-29T15:05:53;7.05;;;3.40;;
39600;SDS011;25297;44.758;11.310;2023-03-29T15:08:32;9.23;;;3.70;;
39600;SDS011;25297;44.758;11.310;2023-03-29T15:10:59;10.10;;;3.13;;
39600;SDS011;25297;44.758;11.310;2023-03-29T15:13:26;6.75;;;3.35;;
39600;SDS011;25297;44.758;11.310;2023-03-29T15:15:59;6.65;;;3.08;;
39600;SDS011;25297;44.758;11.310;2023-03-29T15:18:28;10.05;;;3.38;;
39600;SDS011;25297;44.758;11.310;2023-03-29T15:20:59;9.65;;;3.58;;
39600;SDS011;25297;44.758;11.310;2023-03-29T15:23:25;6.53;;;3.35;;
39600;SDS011;25297;44.758;11.310;2023-03-29T15:26:13;7.60;;;3.25;;
39600;SDS011;25297;44.758;11.310;2023-03-29T15:28:47;10.38;;;3.35;;
39600;SDS011;25297;44.758;11.310;2023-03-29T15:31:35;9.93;;;3.33;;
39600;SDS011;25297;44.758;11.310;2023-03-29T15:36:39;6.68;;;3.00;;
39600;SDS011;25297;44.758;11.310;2023-03-29T15:39:10;8.70;;;3.30;;
39600;SDS011;25297;44.758;11.310;2023-03-29T15:41:38;7.10;;;2.67;;
39600;SDS011;25297;44.758;11.310;2023-03-29T15:44:05;5.18;;;2.30;;
39600;SDS011;25297;44.758;11.310;2023-03-29T15:46:31;7.93;;;3.35;;
39600;SDS011;25297;44.758;11.310;2023-03-29T15:48:57;5.13;;;2.70;;
39600;SDS011;25297;44.758;11.310;2023-03-29T15:51:22;6.40;;;2.65;;
39600;SDS011;25297;44.758;11.310;2023-03-29T15:53:48;11.70;;;2.90;;
39600;SDS011;25297;44.758;11.310;2023-03-29T15:56:15;12.57;;;3.53;;
39600;SDS011;25297;44.758;11.310;2023-03-29T15:58:42;5.68;;;3.17;;
39600;SDS011;25297;44.758;11.310;2023-03-29T16:01:24;10.45;;;3.33;;
39600;SDS011;25297;44.758;11.310;2023-03-29T16:06:28;11.95;;;3.58;;
39600;SDS011;25297;44.758;11.310;2023-03-29T16:08:53;7.93;;;3.25;;
39600;SDS011;25297;44.758;11.310;2023-03-29T16:11:19;5.85;;;3.63;;
39600;SDS011;25297;44.758;11.310;2023-03-29T16:13:45;9.05;;;3.35;;
39600;SDS011;25297;44.758;11.310;2023-03-29T16:16:11;12.10;;;3.20;;
39600;SDS011;25297;44.758;11.310;2023-03-29T16:18:36;8.77;;;3.67;;
39600;SDS011;25297;44.758;11.310;2023-03-29T16:21:02;7.10;;;3.10;;
39600;SDS011;25297;44.758;11.310;2023-03-29T16:23:28;11.95;;;3.92;;
39600;SDS011;25297;44.758;11.310;2023-03-29T16:25:54;9.90;;;3.30;;
39600;SDS011;25297;44.758;11.310;2023-03-29T16:28:20;14.43;;;3.55;;
39600;SDS011;25297;44.758;11.310;2023-03-29T16:30:46;5.82;;;2.83;;
39600;SDS011;25297;44.758;11.310;2023-03-29T16:33:12;6.07;;;3.08;;
39600;SDS011;25297;44.758;11.310;2023-03-29T16:35:38;7.10;;;3.20;;
39600;SDS011;25297;44.758;11.310;2023-03-29T16:38:04;7.45;;;3.10;;
39600;SDS011;25297;44.758;11.310;2023-03-29T16:40:30;8.55;;;3.40;;
39600;SDS011;25297;44.758;11.310;2023-03-29T16:42:57;6.85;;;2.83;;
39600;SDS011;25297;44.758;11.310;2023-03-29T16:45:23;5.65;;;2.83;;
39600;SDS011;25297;44.758;11.310;2023-03-29T16:47:49;6.07;;;2.80;;
39600;SDS011;25297;44.758;11.310;2023-03-29T16:50:16;6.15;;;2.92;;